Terminal Aerodrome Forecast
Issued by NWS Mt. Holly, NJ

Home | Current Version | Previous Version | Text Only | Print | Product List | Glossary On
Versions: 1 2 3 4 5 6 7 8 9 10 11 12 13 14 15 16 17 18
000
FTUS41 KPHI 191100 RRA
TAFRDG
TAF
KRDG 191141Z 1912/2012 01002KT P6SM SKC
     FM191400 04007KT P6SM FEW070
     FM191600 08010KT P6SM SCT060
     FM192000 12007KT P6SM SCT060
     FM200300 12005KT P6SM BKN035
     FM200600 14002KT P6SM OVC025
      TEMPO 2009/2012 5SM -DZ BR BKN015=

USA.gov is the U.S. government's official web portal to all federal, state and local government web resources and services.